Fountainhead — ZCTU3 — position and weather

sailwx.info

Track history (hours):
 
Tides and Currents Weather Stations Pressure Air Temp Water Temp Dewpoint Dewpoint Depression Visibility Wind Speed Wind Dir Waves Ship Positions

Fountainhead

Last reported at 2014-Jul-24 03:25 UTC. Time now 2014-Jul-24 04:22 UTC.
Position N 39°31' E 002°33'.

Length 85 m; draft 4.4 m.

Type: Pleasure craft. MMSI: 319028100.

Date/timePositionNaut miles runAvg speedWind from/ knotsBaromVisibWave heightAir tempDewpointWater temp
2014-Jul-24 03:25N 39°31' E 002°33'0 0.0
2014-Jul-24 02:16N 39°31' E 002°33'0 0.0
2014-Jul-24 01:28N 39°31' E 002°33'0 0.0
2014-Jul-24 00:28N 39°31' E 002°33'0 0.0
2014-Jul-23 23:31N 39°31' E 002°33'0 0.0
2014-Jul-23 22:16N 39°31' E 002°33'0 0.0
2014-Jul-23 21:19N 39°31' E 002°33'0 0.0
2014-Jul-23 20:28N 39°31' E 002°33'0 0.0
2014-Jul-23 19:28N 39°31' E 002°33'0 0.0
2014-Jul-23 18:31N 39°31' E 002°33'0 0.0
2014-Jul-23 17:29N 39°31' E 002°33'8 8.2
2014-Jul-23 16:33N 39°24' E 002°38'1515.1
2014-Jul-23 15:33N 39°12' E 002°48'1111.2
2014-Jul-23 14:34N 39°09' E 003°02'1515.1
2014-Jul-23 13:33N 39°21' E 003°15'12 0.4
2014-Jul-22 05:05N 39°32' E 003°22'713.4
2014-Jul-22 04:33N 39°25' E 003°19'1515.0
2014-Jul-22 03:33N 39°12' E 003°09'1514.4
2014-Jul-22 02:31N 39°05' E 002°52'1715.0
2014-Jul-22 01:25N 39°02' E 002°31'1314.9
2014-Jul-22 00:31N 38°59' E 002°14'1515.4
2014-Jul-21 23:33N 38°57' E 001°55'1515.5
2014-Jul-21 22:33N 38°55' E 001°36'6 0.5
2014-Jul-21 10:17N 38°54' E 001°28'0 0.0
2014-Jul-21 08:17N 38°54' E 001°28'0 0.0
2014-Jul-21 07:17N 38°54' E 001°28'0 0.0
2014-Jul-21 06:29N 38°54' E 001°28'0 0.0
2014-Jul-20 12:05N 38°54' E 001°28'0 0.0
2014-Jul-20 11:11N 38°54' E 001°28'0 0.0
2014-Jul-20 10:23N 38°54' E 001°28'0 0.1
2014-Jul-20 09:29N 38°54' E 001°28'0 0.0
2014-Jul-20 06:29N 38°54' E 001°28'0 0.0
2014-Jul-20 05:29N 38°54' E 001°28'0 0.0
2014-Jul-20 04:29N 38°54' E 001°28'5 0.6
2014-Jul-19 20:32N 38°50' E 001°26'4 0.8
2014-Jul-19 15:23N 38°46' E 001°26'0 0.0
2014-Jul-19 14:23N 38°46' E 001°26'0 0.0
2014-Jul-19 13:29N 38°46' E 001°26'0 0.0
2014-Jul-19 12:12N 38°46' E 001°26'3 4.3
2014-Jul-19 11:33N 38°48' E 001°25'6 0.3
2014-Jul-18 15:31N 38°54' E 001°28'1414.2
2014-Jul-18 14:33N 39°02' E 001°42'1514.6
2014-Jul-18 13:33N 39°13' E 001°54'1514.6
2014-Jul-18 12:33N 39°24' E 002°08'21 6.6
2014-Jul-18 09:27N 39°42' E 002°20'1112.7
2014-Jul-18 08:33N 39°44' E 002°34'4 1.7
2014-Jul-18 06:20N 39°46' E 002°39'0 0.0
2014-Jul-18 03:26N 39°46' E 002°39'0 0.0
2014-Jul-18 02:08N 39°46' E 002°39'0 0.0
2014-Jul-18 01:26N 39°46' E 002°39'0 0.0
2014-Jul-18 00:26N 39°46' E 002°39'0 0.0
2014-Jul-17 23:32N 39°46' E 002°39'0 0.0
2014-Jul-17 22:32N 39°46' E 002°39'0 0.0
2014-Jul-17 19:08N 39°46' E 002°39'0 0.0
2014-Jul-17 18:32N 39°46' E 002°39'0 0.0
2014-Jul-17 17:26N 39°46' E 002°39'0 0.0
2014-Jul-17 15:32N 39°46' E 002°39'0 0.0
2014-Jul-17 14:32N 39°46' E 002°39'0 0.0
2014-Jul-17 13:32N 39°46' E 002°39'0 0.0
2014-Jul-17 11:32N 39°46' E 002°39'0 0.0
2014-Jul-17 10:20N 39°46' E 002°39'0 0.0
2014-Jul-17 09:32N 39°46' E 002°39'0 0.0
2014-Jul-17 08:31N 39°46' E 002°39'47 1.7
2014-Jul-16 04:26N 40°20' E 003°22'1715.3
2014-Jul-16 03:21N 40°32' E 003°36'1315.7
2014-Jul-16 02:31N 40°42' E 003°48'1715.6
2014-Jul-16 01:24N 40°55' E 004°03'1714.8
2014-Jul-16 00:17N 41°07' E 004°18'3647.6
2014-Jul-15 23:31N 40°32' E 004°27'5453.3
2014-Jul-15 22:31N 41°25' E 004°36'1111.0
2014-Jul-15 21:31N 41°34' E 004°45'1414.1
2014-Jul-15 20:32N 41°45' E 004°57'1514.8
2014-Jul-15 19:33N 41°55' E 005°10'10 9.7
2014-Jul-15 18:33N 41°60' E 005°22'1211.5
2014-Jul-15 17:33N 42°07' E 005°33'1515.1
2014-Jul-15 16:33N 42°19' E 005°46'1615.6
2014-Jul-15 15:33N 42°31' E 006°00'2015.7
2014-Jul-15 14:17N 42°46' E 006°17'1216.1
2014-Jul-15 13:34N 42°55' E 006°27'1616.2
2014-Jul-15 12:34N 43°07' E 006°42'1616.1
2014-Jul-15 11:33N 43°20' E 006°55'13 5.5
2014-Jul-15 09:16N 43°32' E 007°02'0 0.0
2014-Jul-15 08:28N 43°32' E 007°02'0 0.0
2014-Jul-15 07:28N 43°32' E 007°02'0 0.0
2014-Jul-15 06:28N 43°32' E 007°02'0 0.0
2014-Jul-15 05:28N 43°32' E 007°02'0 0.0
2014-Jul-15 04:28N 43°32' E 007°02'0 0.0
2014-Jul-15 03:28N 43°32' E 007°02'3 0.3
2014-Jul-14 17:33N 43°30' E 007°04'2 1.5
2014-Jul-14 16:04N 43°32' E 007°03'0 0.0
2014-Jul-14 13:28N 43°32' E 007°03'0 0.0
2014-Jul-14 12:28N 43°32' E 007°03'0 0.0
2014-Jul-14 11:28N 43°32' E 007°03'0 0.0
2014-Jul-14 10:29N 43°32' E 007°03'0 0.0
2014-Jul-14 09:28N 43°32' E 007°03'0 0.0
2014-Jul-14 08:28N 43°32' E 007°03'0 0.0
2014-Jul-14 07:25N 43°32' E 007°03'0 0.0
2014-Jul-14 06:04N 43°32' E 007°03'0 0.0
2014-Jul-14 05:28N 43°32' E 007°03'0 0.0
2014-Jul-14 04:28N 43°32' E 007°03'  
Track history (hours):
 
Tides and Currents Weather Stations Pressure Air Temp Water Temp Dewpoint Dewpoint Depression Visibility Wind Speed Wind Dir Waves Ship Positions

Fountainhead

Last reported at 2014-Jul-24 03:25 UTC. Time now 2014-Jul-24 04:22 UTC.
Position N 39°31' E 002°33'.

Length 85 m; draft 4.4 m.

Type: Pleasure craft. MMSI: 319028100.

Date/timePositionNaut miles runAvg speedWind from/ knotsBaromVisibWave heightAir tempDewpointWater temp
2014-Jul-24 03:25N 39°31' E 002°33'0 0.0
2014-Jul-24 02:16N 39°31' E 002°33'0 0.0
2014-Jul-24 01:28N 39°31' E 002°33'0 0.0
2014-Jul-24 00:28N 39°31' E 002°33'0 0.0
2014-Jul-23 23:31N 39°31' E 002°33'0 0.0
2014-Jul-23 22:16N 39°31' E 002°33'0 0.0
2014-Jul-23 21:19N 39°31' E 002°33'0 0.0
2014-Jul-23 20:28N 39°31' E 002°33'0 0.0
2014-Jul-23 19:28N 39°31' E 002°33'0 0.0
2014-Jul-23 18:31N 39°31' E 002°33'0 0.0
2014-Jul-23 17:29N 39°31' E 002°33'8 8.2
2014-Jul-23 16:33N 39°24' E 002°38'1515.1
2014-Jul-23 15:33N 39°12' E 002°48'1111.2
2014-Jul-23 14:34N 39°09' E 003°02'1515.1
2014-Jul-23 13:33N 39°21' E 003°15'12 0.4
2014-Jul-22 05:05N 39°32' E 003°22'713.4
2014-Jul-22 04:33N 39°25' E 003°19'1515.0
2014-Jul-22 03:33N 39°12' E 003°09'1514.4
2014-Jul-22 02:31N 39°05' E 002°52'1715.0
2014-Jul-22 01:25N 39°02' E 002°31'1314.9
2014-Jul-22 00:31N 38°59' E 002°14'1515.4
2014-Jul-21 23:33N 38°57' E 001°55'1515.5
2014-Jul-21 22:33N 38°55' E 001°36'6 0.5
2014-Jul-21 10:17N 38°54' E 001°28'0 0.0
2014-Jul-21 08:17N 38°54' E 001°28'0 0.0
2014-Jul-21 07:17N 38°54' E 001°28'0 0.0
2014-Jul-21 06:29N 38°54' E 001°28'0 0.0
2014-Jul-20 12:05N 38°54' E 001°28'0 0.0
2014-Jul-20 11:11N 38°54' E 001°28'0 0.0
2014-Jul-20 10:23N 38°54' E 001°28'0 0.1
2014-Jul-20 09:29N 38°54' E 001°28'0 0.0
2014-Jul-20 06:29N 38°54' E 001°28'0 0.0
2014-Jul-20 05:29N 38°54' E 001°28'0 0.0
2014-Jul-20 04:29N 38°54' E 001°28'5 0.6
2014-Jul-19 20:32N 38°50' E 001°26'4 0.8
2014-Jul-19 15:23N 38°46' E 001°26'0 0.0
2014-Jul-19 14:23N 38°46' E 001°26'0 0.0
2014-Jul-19 13:29N 38°46' E 001°26'0 0.0
2014-Jul-19 12:12N 38°46' E 001°26'3 4.3
2014-Jul-19 11:33N 38°48' E 001°25'6 0.3
2014-Jul-18 15:31N 38°54' E 001°28'1414.2
2014-Jul-18 14:33N 39°02' E 001°42'1514.6
2014-Jul-18 13:33N 39°13' E 001°54'1514.6
2014-Jul-18 12:33N 39°24' E 002°08'21 6.6
2014-Jul-18 09:27N 39°42' E 002°20'1112.7
2014-Jul-18 08:33N 39°44' E 002°34'4 1.7
2014-Jul-18 06:20N 39°46' E 002°39'0 0.0
2014-Jul-18 03:26N 39°46' E 002°39'0 0.0
2014-Jul-18 02:08N 39°46' E 002°39'0 0.0
2014-Jul-18 01:26N 39°46' E 002°39'0 0.0
2014-Jul-18 00:26N 39°46' E 002°39'0 0.0
2014-Jul-17 23:32N 39°46' E 002°39'0 0.0
2014-Jul-17 22:32N 39°46' E 002°39'0 0.0
2014-Jul-17 19:08N 39°46' E 002°39'0 0.0
2014-Jul-17 18:32N 39°46' E 002°39'0 0.0
2014-Jul-17 17:26N 39°46' E 002°39'0 0.0
2014-Jul-17 15:32N 39°46' E 002°39'0 0.0
2014-Jul-17 14:32N 39°46' E 002°39'0 0.0
2014-Jul-17 13:32N 39°46' E 002°39'0 0.0
2014-Jul-17 11:32N 39°46' E 002°39'0 0.0
2014-Jul-17 10:20N 39°46' E 002°39'0 0.0
2014-Jul-17 09:32N 39°46' E 002°39'0 0.0
2014-Jul-17 08:31N 39°46' E 002°39'47 1.7
2014-Jul-16 04:26N 40°20' E 003°22'1715.3
2014-Jul-16 03:21N 40°32' E 003°36'1315.7
2014-Jul-16 02:31N 40°42' E 003°48'1715.6
2014-Jul-16 01:24N 40°55' E 004°03'1714.8
2014-Jul-16 00:17N 41°07' E 004°18'3647.6
2014-Jul-15 23:31N 40°32' E 004°27'5453.3
2014-Jul-15 22:31N 41°25' E 004°36'1111.0
2014-Jul-15 21:31N 41°34' E 004°45'1414.1
2014-Jul-15 20:32N 41°45' E 004°57'1514.8
2014-Jul-15 19:33N 41°55' E 005°10'10 9.7
2014-Jul-15 18:33N 41°60' E 005°22'1211.5
2014-Jul-15 17:33N 42°07' E 005°33'1515.1
2014-Jul-15 16:33N 42°19' E 005°46'1615.6
2014-Jul-15 15:33N 42°31' E 006°00'2015.7
2014-Jul-15 14:17N 42°46' E 006°17'1216.1
2014-Jul-15 13:34N 42°55' E 006°27'1616.2
2014-Jul-15 12:34N 43°07' E 006°42'1616.1
2014-Jul-15 11:33N 43°20' E 006°55'13 5.5
2014-Jul-15 09:16N 43°32' E 007°02'0 0.0
2014-Jul-15 08:28N 43°32' E 007°02'0 0.0
2014-Jul-15 07:28N 43°32' E 007°02'0 0.0
2014-Jul-15 06:28N 43°32' E 007°02'0 0.0
2014-Jul-15 05:28N 43°32' E 007°02'0 0.0
2014-Jul-15 04:28N 43°32' E 007°02'0 0.0
2014-Jul-15 03:28N 43°32' E 007°02'3 0.3
2014-Jul-14 17:33N 43°30' E 007°04'2 1.5
2014-Jul-14 16:04N 43°32' E 007°03'0 0.0
2014-Jul-14 13:28N 43°32' E 007°03'0 0.0
2014-Jul-14 12:28N 43°32' E 007°03'0 0.0
2014-Jul-14 11:28N 43°32' E 007°03'0 0.0
2014-Jul-14 10:29N 43°32' E 007°03'0 0.0
2014-Jul-14 09:28N 43°32' E 007°03'0 0.0
2014-Jul-14 08:28N 43°32' E 007°03'0 0.0
2014-Jul-14 07:25N 43°32' E 007°03'0 0.0
2014-Jul-14 06:04N 43°32' E 007°03'0 0.0
2014-Jul-14 05:28N 43°32' E 007°03'0 0.0
2014-Jul-14 04:28N 43°32' E 007°03'  

Dump ship's entire track history